createdAt,value
2022-08-04T00:01:48.043Z,27.18
2022-08-04T00:04:19.572Z,26.63
2022-08-04T00:06:55.883Z,26.09
2022-08-04T00:09:29.936Z,26.51
2022-08-04T00:11:59.344Z,27.08
2022-08-04T00:14:27.579Z,26.71
2022-08-04T00:16:55.949Z,27.40
2022-08-04T00:19:26.916Z,27.69
2022-08-04T00:21:57.740Z,27.67
2022-08-04T00:24:27.651Z,25.92
2022-08-04T00:26:56.090Z,26.65
2022-08-04T00:29:24.405Z,26.97
2022-08-04T00:31:56.258Z,27.51
2022-08-04T00:34:26.534Z,25.86
2022-08-04T00:36:55.165Z,27.53
2022-08-04T00:39:23.923Z,27.52
2022-08-04T00:42:19.774Z,25.55
2022-08-04T00:44:55.074Z,27.45
2022-08-04T00:47:36.428Z,26.09
2022-08-04T00:50:06.969Z,27.39
2022-08-04T00:52:50.507Z,26.76
2022-08-04T00:55:29.383Z,27.33
2022-08-04T00:58:18.596Z,24.98
2022-08-04T01:00:50.664Z,27.30
2022-08-04T01:03:22.802Z,27.29
2022-08-04T01:05:58.637Z,25.92
2022-08-04T01:08:48.291Z,25.40
2022-08-04T01:11:25.700Z,27.20
2022-08-04T01:14:01.766Z,25.82
2022-08-04T01:16:30.030Z,26.54
2022-08-04T01:19:00.932Z,25.99
2022-08-04T01:21:51.036Z,24.35
2022-08-04T01:24:34.720Z,25.78
2022-08-04T01:27:04.196Z,25.21
2022-08-04T01:29:46.520Z,25.44
2022-08-04T01:32:19.221Z,24.82
2022-08-04T01:34:51.453Z,26.39
2022-08-04T01:37:27.568Z,26.30
2022-08-04T01:40:02.126Z,24.83
2022-08-04T01:42:31.601Z,24.29
2022-08-04T01:45:02.152Z,25.07
2022-08-04T01:47:30.801Z,24.71
2022-08-04T01:50:03.925Z,26.12
2022-08-04T01:52:31.956Z,25.17
2022-08-04T01:54:59.956Z,26.00
2022-08-04T01:57:38.153Z,25.95
2022-08-04T02:00:10.189Z,26.14
2022-08-04T02:02:38.226Z,24.38
2022-08-04T02:05:06.678Z,25.23
2022-08-04T02:07:56.947Z,24.53
2022-08-04T02:10:28.622Z,25.65
2022-08-04T02:13:01.793Z,26.47
2022-08-04T02:15:32.689Z,25.81
2022-08-04T02:18:05.453Z,26.36
2022-08-04T02:20:35.922Z,25.35
2022-08-04T02:23:05.722Z,24.20
2022-08-04T02:25:38.755Z,24.62
2022-08-04T02:28:14.042Z,26.14
2022-08-04T02:30:48.189Z,23.41
2022-08-04T02:33:19.612Z,25.15
2022-08-04T02:35:48.091Z,26.06
2022-08-04T02:38:25.349Z,25.38
2022-08-04T02:40:54.989Z,26.02
2022-08-04T02:43:51.495Z,25.34
2022-08-04T02:46:18.211Z,23.97
2022-08-04T02:48:47.829Z,25.96
2022-08-04T02:51:17.094Z,25.29
2022-08-04T02:53:45.455Z,23.58
2022-08-04T02:56:13.595Z,22.85
2022-08-04T02:58:41.657Z,25.37
2022-08-04T03:01:09.750Z,24.39
2022-08-04T03:03:41.844Z,25.16
2022-08-04T03:06:36.437Z,24.81
2022-08-04T03:09:21.471Z,25.87
2022-08-04T03:12:12.685Z,24.08
2022-08-04T03:15:10.093Z,25.10
2022-08-04T03:18:17.588Z,25.84
2022-08-04T03:21:11.669Z,22.23
2022-08-04T03:24:00.096Z,25.80
2022-08-04T03:26:47.493Z,24.34
2022-08-04T03:29:55.382Z,25.83
2022-08-04T03:33:00.604Z,25.80
2022-08-04T03:36:17.449Z,25.79
2022-08-04T03:38:59.226Z,23.79
2022-08-04T03:41:51.567Z,25.36
2022-08-04T03:44:43.037Z,24.62
2022-08-04T03:47:29.979Z,25.74
2022-08-04T03:50:24.238Z,25.51
2022-08-04T03:53:09.680Z,25.73
2022-08-04T03:55:47.032Z,25.69
2022-08-04T03:58:37.481Z,25.77
2022-08-04T04:01:11.718Z,25.11
2022-08-04T04:03:50.513Z,23.29
2022-08-04T04:06:40.621Z,25.81
2022-08-04T04:09:44.168Z,24.07
2022-08-04T04:12:43.143Z,25.49
2022-08-04T04:15:21.087Z,24.89
2022-08-04T04:18:14.531Z,25.79
2022-08-04T04:20:59.407Z,25.86
2022-08-04T04:23:43.103Z,25.84
2022-08-04T04:26:27.001Z,25.85
2022-08-04T04:29:16.757Z,24.51
2022-08-04T04:32:06.280Z,25.02
2022-08-04T04:34:46.070Z,24.88
2022-08-04T04:37:21.184Z,24.18
2022-08-04T04:39:57.097Z,24.64
2022-08-04T04:42:34.181Z,25.99
2022-08-04T04:45:14.141Z,25.40
2022-08-04T04:48:08.726Z,23.70
2022-08-04T04:50:44.784Z,24.77
2022-08-04T04:53:18.470Z,23.26
2022-08-04T04:55:49.052Z,24.80
2022-08-04T04:58:19.009Z,24.61
2022-08-04T05:00:57.185Z,24.75
2022-08-04T05:03:35.349Z,22.70
2022-08-04T05:06:12.242Z,25.28
2022-08-04T05:11:20.834Z,26.32
2022-08-04T05:14:37.280Z,26.32
2022-08-04T05:16:40.884Z,26.45
2022-08-04T05:19:14.270Z,26.46
2022-08-04T05:21:44.715Z,26.58
2022-08-04T05:24:14.394Z,26.62
2022-08-04T05:26:46.675Z,26.70
2022-08-04T05:29:18.029Z,26.40
2022-08-04T05:31:51.182Z,26.83
2022-08-04T05:34:22.156Z,26.57
2022-08-04T05:36:52.211Z,26.96
2022-08-04T05:39:21.734Z,27.12
2022-08-04T05:41:55.687Z,27.22
2022-08-04T05:44:26.510Z,27.35
2022-08-04T05:46:58.337Z,27.49
2022-08-04T05:49:27.331Z,27.66
2022-08-04T05:51:55.993Z,27.77
2022-08-04T05:54:23.880Z,27.96
2022-08-04T05:56:52.980Z,28.32
2022-08-04T05:59:25.612Z,28.69
2022-08-04T06:01:58.850Z,29.15
2022-08-04T06:04:29.345Z,29.48
2022-08-04T06:06:57.339Z,30.13
2022-08-04T06:09:25.375Z,30.41
2022-08-04T06:12:00.476Z,31.11
2022-08-04T06:14:34.166Z,31.40
2022-08-04T06:17:05.915Z,32.14
2022-08-04T06:19:58.487Z,32.55
2022-08-04T06:22:32.343Z,33.25
2022-08-04T06:25:00.475Z,33.80
2022-08-04T06:27:29.247Z,34.32
2022-08-04T06:29:57.629Z,34.79
2022-08-04T06:32:41.466Z,35.23
2022-08-04T06:35:10.493Z,35.87
2022-08-04T06:37:43.666Z,36.37
2022-08-04T06:40:30.692Z,36.91
2022-08-04T06:43:00.189Z,37.36
2022-08-04T06:45:28.421Z,37.96
2022-08-04T06:47:58.545Z,38.40
2022-08-04T06:51:29.205Z,38.83
2022-08-04T06:53:14.357Z,39.30
2022-08-04T06:55:42.736Z,39.72
2022-08-04T06:58:10.680Z,39.98
2022-08-04T07:00:40.477Z,40.25
2022-08-04T07:03:09.867Z,40.95
2022-08-04T07:05:37.827Z,41.34
2022-08-04T07:08:06.008Z,41.79
2022-08-04T07:10:34.044Z,42.11
2022-08-04T07:13:02.557Z,42.45
2022-08-04T07:15:30.486Z,42.79
2022-08-04T07:18:00.329Z,43.08
2022-08-04T07:20:32.968Z,43.31
2022-08-04T07:23:04.166Z,43.65
2022-08-04T07:26:00.463Z,43.95
2022-08-04T07:28:20.174Z,44.26
2022-08-04T07:30:48.867Z,44.21
2022-08-04T07:33:17.249Z,44.31
2022-08-04T07:36:09.018Z,44.34
2022-08-04T07:38:37.686Z,44.52
2022-08-04T07:44:02.849Z,44.86
2022-08-04T07:46:31.123Z,44.85
2022-08-04T07:49:00.979Z,44.94
2022-08-04T07:51:30.727Z,45.01
2022-08-04T07:53:59.037Z,44.75
2022-08-04T07:56:27.143Z,45.04
2022-08-04T07:58:55.609Z,45.18
2022-08-04T08:01:23.607Z,45.37
2022-08-04T08:03:51.988Z,45.65
2022-08-04T08:06:32.377Z,46.03
2022-08-04T08:09:13.433Z,46.39
2022-08-04T08:12:38.442Z,46.68
2022-08-04T08:14:30.839Z,47.08
2022-08-04T08:17:00.203Z,47.24
2022-08-04T08:19:28.212Z,47.47
2022-08-04T08:22:00.003Z,47.74
2022-08-04T08:24:30.153Z,47.95
2022-08-04T08:26:58.275Z,48.29
2022-08-04T08:29:26.836Z,48.30
2022-08-04T08:31:58.388Z,48.90
2022-08-04T08:34:28.598Z,49.20
2022-08-04T08:37:01.958Z,49.36
2022-08-04T08:39:36.302Z,49.68
2022-08-04T08:42:33.740Z,49.98
2022-08-04T08:45:41.169Z,50.39
2022-08-04T08:48:34.686Z,50.10
2022-08-04T08:51:08.996Z,50.42
2022-08-04T08:54:00.710Z,50.93
2022-08-04T08:56:35.527Z,51.43
2022-08-04T08:59:15.166Z,51.79
2022-08-04T09:01:52.403Z,52.17
2022-08-04T09:04:40.198Z,52.39
2022-08-04T09:07:15.144Z,52.51
2022-08-04T09:09:49.350Z,52.95
2022-08-04T09:12:25.882Z,53.14
2022-08-04T09:14:55.744Z,53.23
2022-08-04T09:17:29.044Z,53.36
2022-08-04T09:20:00.399Z,53.59
2022-08-04T09:22:33.084Z,54.02
2022-08-04T09:25:01.844Z,54.49
2022-08-04T09:27:37.302Z,54.64
2022-08-04T09:30:07.005Z,55.05
2022-08-04T09:32:38.154Z,55.26
2022-08-04T09:35:15.861Z,55.50
2022-08-04T09:37:46.684Z,55.70
2022-08-04T09:40:31.844Z,56.00
2022-08-04T09:43:16.363Z,56.33
2022-08-04T09:45:51.647Z,56.68
2022-08-04T09:48:27.179Z,56.91
2022-08-04T09:50:58.167Z,56.98
2022-08-04T09:53:39.078Z,57.51
2022-08-04T09:56:10.790Z,57.48
2022-08-04T09:58:51.460Z,57.04
2022-08-04T10:01:23.446Z,56.91
2022-08-04T10:03:53.503Z,57.14
2022-08-04T10:06:48.691Z,57.29
2022-08-04T10:09:29.464Z,57.46
2022-08-04T10:12:23.272Z,57.60
2022-08-04T10:14:55.026Z,57.96
2022-08-04T10:17:52.407Z,58.30
2022-08-04T10:20:44.822Z,58.59
2022-08-04T10:23:13.542Z,58.92
2022-08-04T10:26:05.277Z,59.18
2022-08-04T10:28:39.041Z,59.19
2022-08-04T10:31:10.680Z,58.08
2022-08-04T10:33:42.301Z,57.11
2022-08-04T10:36:10.998Z,56.99
2022-08-04T10:38:42.391Z,57.31
2022-08-04T10:41:12.864Z,57.46
2022-08-04T10:43:47.732Z,56.82
2022-08-04T10:46:18.580Z,57.48
2022-08-04T10:48:50.610Z,58.21
2022-08-04T10:51:23.116Z,59.14
2022-08-04T10:53:55.397Z,59.64
2022-08-04T10:56:25.174Z,59.68
2022-08-04T10:58:55.801Z,59.65
2022-08-04T11:01:59.634Z,59.74
2022-08-04T11:04:27.095Z,58.27
2022-08-04T11:07:15.503Z,56.90
2022-08-04T11:09:44.292Z,55.55
2022-08-04T11:12:16.671Z,54.88
2022-08-04T11:14:48.571Z,55.07
2022-08-04T11:17:21.177Z,55.38
2022-08-04T11:19:53.652Z,56.22
2022-08-04T11:22:26.184Z,57.11
2022-08-04T11:25:30.830Z,58.07
2022-08-04T11:28:09.429Z,57.96
2022-08-04T11:30:39.093Z,58.22
2022-08-04T11:33:22.562Z,58.36
2022-08-04T11:35:53.859Z,57.76
2022-08-04T11:38:24.137Z,57.28
2022-08-04T11:41:03.114Z,56.68
2022-08-04T11:44:02.302Z,55.49
2022-08-04T11:46:26.464Z,54.11
2022-08-04T11:48:59.551Z,52.88
2022-08-04T11:51:28.633Z,51.89
2022-08-04T11:53:57.272Z,51.08
2022-08-04T11:56:37.182Z,50.47
2022-08-04T11:59:07.566Z,49.92
2022-08-04T12:01:37.538Z,49.34
2022-08-04T12:04:09.227Z,48.75
2022-08-04T12:06:40.554Z,48.32
2022-08-04T12:09:14.463Z,48.15
2022-08-04T12:12:02.065Z,47.81
2022-08-04T12:14:35.082Z,47.49
2022-08-04T12:17:03.855Z,47.09
2022-08-04T12:19:53.884Z,46.51
2022-08-04T12:22:31.354Z,45.87
2022-08-04T12:25:01.487Z,45.21
2022-08-04T12:27:32.596Z,44.69
2022-08-04T12:30:57.969Z,44.27
2022-08-04T12:32:54.113Z,44.00
2022-08-04T12:35:28.878Z,44.13
2022-08-04T12:37:59.519Z,44.25
2022-08-04T12:40:31.216Z,44.42
2022-08-04T12:43:03.313Z,44.36
2022-08-04T12:45:31.232Z,44.64
2022-08-04T12:48:00.304Z,44.29
2022-08-04T12:50:29.677Z,44.39
2022-08-04T12:53:02.102Z,44.33
2022-08-04T12:55:31.880Z,44.17
2022-08-04T12:58:00.271Z,44.00
2022-08-04T13:00:35.238Z,43.75
2022-08-04T13:03:09.582Z,43.58
2022-08-04T13:05:41.406Z,43.38
2022-08-04T13:08:10.612Z,43.30
2022-08-04T13:10:39.865Z,43.23
2022-08-04T13:13:08.223Z,43.18
2022-08-04T13:18:29.557Z,43.16
2022-08-04T13:24:19.513Z,43.52
2022-08-04T13:26:55.501Z,43.84
2022-08-04T13:29:59.734Z,43.97
2022-08-04T13:30:24.017Z,43.10
2022-08-04T13:30:24.090Z,43.43
2022-08-04T13:32:16.243Z,44.05
2022-08-04T13:34:49.128Z,43.81
2022-08-04T13:37:26.598Z,43.93
2022-08-04T13:39:56.412Z,43.79
2022-08-04T13:42:25.374Z,43.66
2022-08-04T13:44:57.213Z,43.48
2022-08-04T13:47:28.797Z,43.29
2022-08-04T13:50:15.395Z,43.26
2022-08-04T13:52:44.940Z,43.25
2022-08-04T13:55:25.380Z,43.29
2022-08-04T13:57:57.108Z,43.19
2022-08-04T14:00:29.391Z,43.01
2022-08-04T14:03:02.347Z,43.23
2022-08-04T14:05:58.765Z,43.33
2022-08-04T14:08:24.032Z,43.10
2022-08-04T14:10:58.882Z,43.07
2022-08-04T14:13:41.369Z,42.98
2022-08-04T14:16:17.871Z,42.84
2022-08-04T14:18:45.920Z,42.71
2022-08-04T14:21:16.810Z,42.59
2022-08-04T14:23:49.206Z,42.25
2022-08-04T14:26:32.796Z,42.30
2022-08-04T14:29:26.202Z,42.03
2022-08-04T14:32:01.768Z,41.98
2022-08-04T14:34:33.533Z,41.78
2022-08-04T14:37:18.592Z,41.59
2022-08-04T14:40:18.508Z,41.18
2022-08-04T14:42:54.473Z,41.17
2022-08-04T14:45:34.860Z,40.89
2022-08-04T14:48:04.322Z,40.78
2022-08-04T14:50:39.175Z,40.64
2022-08-04T14:53:09.273Z,40.50
2022-08-04T14:55:38.695Z,40.39
2022-08-04T14:58:35.957Z,40.31
2022-08-04T15:00:57.509Z,40.21
2022-08-04T15:03:25.604Z,39.93
2022-08-04T15:05:59.895Z,39.87
2022-08-04T15:08:33.772Z,39.89
2022-08-04T15:11:03.700Z,39.76
2022-08-04T15:13:32.175Z,39.58
2022-08-04T15:16:06.702Z,39.43
2022-08-04T15:18:39.590Z,39.37
2022-08-04T15:21:07.786Z,39.21
2022-08-04T15:23:38.774Z,39.09
2022-08-04T15:26:11.430Z,38.81
2022-08-04T15:28:40.170Z,38.92
2022-08-04T15:31:10.587Z,38.90
2022-08-04T15:33:56.265Z,38.82
2022-08-04T15:36:39.123Z,38.74
2022-08-04T15:39:13.727Z,37.61
2022-08-04T15:41:55.131Z,37.72
2022-08-04T15:44:50.633Z,38.49
2022-08-04T15:47:19.943Z,38.04
2022-08-04T15:49:47.986Z,36.76
2022-08-04T15:52:18.289Z,37.78
2022-08-04T15:54:52.666Z,37.30
2022-08-04T15:57:41.957Z,38.03
2022-08-04T16:00:15.043Z,38.06
2022-08-04T16:02:47.292Z,38.02
2022-08-04T16:05:37.128Z,37.93
2022-08-04T16:08:15.534Z,37.74
2022-08-04T16:10:45.404Z,37.67
2022-08-04T16:13:15.272Z,36.44
2022-08-04T16:15:48.086Z,37.05
2022-08-04T16:18:37.664Z,35.78
2022-08-04T16:21:07.068Z,36.67
2022-08-04T16:24:07.781Z,37.18
2022-08-04T16:26:54.757Z,36.47
2022-08-04T16:29:38.030Z,36.36
2022-08-04T16:32:16.744Z,35.86
2022-08-04T16:34:54.433Z,36.50
2022-08-04T16:37:25.844Z,36.61
2022-08-04T16:40:36.949Z,36.57
2022-08-04T16:43:07.394Z,35.61
2022-08-04T16:45:47.744Z,36.43
2022-08-04T16:48:16.315Z,34.76
2022-08-04T16:50:53.000Z,34.75
2022-08-04T16:53:57.955Z,35.95
2022-08-04T16:56:11.276Z,36.00
2022-08-04T16:58:54.154Z,34.16
2022-08-04T17:01:33.652Z,34.08
2022-08-04T17:04:05.511Z,35.62
2022-08-04T17:06:35.736Z,36.07
2022-08-04T17:11:38.963Z,36.83
2022-08-04T17:14:06.972Z,36.83
2022-08-04T17:16:38.472Z,36.81
2022-08-04T17:19:06.759Z,36.84
2022-08-04T17:21:48.997Z,36.91
2022-08-04T17:28:10.041Z,36.97
2022-08-04T17:29:52.966Z,36.92
2022-08-04T17:32:23.301Z,36.97
2022-08-04T17:34:51.893Z,36.90
2022-08-04T17:37:39.535Z,36.91
2022-08-04T17:40:10.407Z,36.81
2022-08-04T17:42:41.364Z,36.69
2022-08-04T17:45:50.931Z,36.59
2022-08-04T17:48:00.205Z,36.54
2022-08-04T17:50:28.482Z,36.49
2022-08-04T17:53:12.299Z,36.40
2022-08-04T17:55:42.180Z,36.38
2022-08-04T17:58:20.777Z,36.33
2022-08-04T18:01:05.280Z,36.07
2022-08-04T18:03:43.749Z,36.03
2022-08-04T18:06:19.962Z,35.99
2022-08-04T18:08:57.377Z,35.85
2022-08-04T18:11:29.816Z,35.74
2022-08-04T18:14:10.486Z,35.63
2022-08-04T18:16:44.312Z,35.53
2022-08-04T18:19:14.548Z,35.42
2022-08-04T18:21:46.625Z,35.30
2022-08-04T18:24:34.448Z,35.09
2022-08-04T18:27:06.471Z,35.05
2022-08-04T18:29:39.195Z,34.96
2022-08-04T18:32:08.942Z,34.87
2022-08-04T18:38:06.301Z,34.60
2022-08-04T18:40:27.889Z,34.56
2022-08-04T18:43:00.013Z,34.44
2022-08-04T18:45:34.608Z,34.24
2022-08-04T18:48:04.093Z,34.12
2022-08-04T18:51:09.179Z,34.00
2022-08-04T18:53:21.636Z,33.88
2022-08-04T18:55:56.828Z,33.77
2022-08-04T18:58:27.108Z,33.63
2022-08-04T19:01:00.575Z,33.50
2022-08-04T19:03:32.912Z,33.36
2022-08-04T19:06:02.971Z,33.28
2022-08-04T19:08:34.697Z,33.20
2022-08-04T19:11:38.619Z,33.11
2022-08-04T19:13:54.524Z,32.99
2022-08-04T19:16:26.934Z,32.94
2022-08-04T19:19:01.877Z,32.88
2022-08-04T19:22:00.768Z,32.79
2022-08-04T19:24:32.917Z,32.66
2022-08-04T19:27:06.794Z,32.62
2022-08-04T19:29:38.079Z,32.52
2022-08-04T19:32:14.334Z,32.38
2022-08-04T19:34:46.463Z,32.40
2022-08-04T19:37:57.658Z,32.13
2022-08-04T19:40:05.701Z,32.26
2022-08-04T19:42:34.608Z,32.18
2022-08-04T19:45:02.617Z,32.12
2022-08-04T19:48:11.194Z,32.07
2022-08-04T19:50:18.450Z,31.89
2022-08-04T19:52:52.241Z,31.95
2022-08-04T19:55:22.595Z,31.72
2022-08-04T19:58:05.307Z,31.83
2022-08-04T20:00:35.485Z,31.76
2022-08-04T20:03:11.298Z,31.73
2022-08-04T20:05:54.527Z,31.68
2022-08-04T20:08:27.912Z,31.59
2022-08-04T20:10:55.972Z,31.52
2022-08-04T20:13:30.930Z,31.46
2022-08-04T20:16:20.226Z,31.37
2022-08-04T20:18:57.082Z,31.04
2022-08-04T20:21:36.407Z,31.20
2022-08-04T20:24:38.909Z,31.17
2022-08-04T20:27:07.658Z,31.12
2022-08-04T20:29:40.616Z,31.07
2022-08-04T20:32:09.703Z,31.03
2022-08-04T20:34:56.668Z,30.93
2022-08-04T20:37:25.781Z,30.91
2022-08-04T20:40:22.824Z,30.78
2022-08-04T20:42:51.585Z,30.78
2022-08-04T20:45:22.732Z,30.76
2022-08-04T20:47:53.080Z,30.73
2022-08-04T20:50:28.337Z,30.71
2022-08-04T20:52:58.658Z,30.69
2022-08-04T20:55:29.709Z,30.65
2022-08-04T20:58:03.136Z,30.59
2022-08-04T21:00:31.644Z,30.58
2022-08-04T21:03:12.726Z,30.58
2022-08-04T21:05:40.587Z,30.51
2022-08-04T21:08:09.183Z,30.47
2022-08-04T21:10:39.827Z,30.45
2022-08-04T21:13:15.164Z,30.41
2022-08-04T21:15:58.820Z,30.37
2022-08-04T21:18:29.420Z,30.30
2022-08-04T21:20:57.676Z,30.29
2022-08-04T21:23:25.810Z,30.17
2022-08-04T21:25:58.359Z,30.21
2022-08-04T21:28:26.427Z,30.18
2022-08-04T21:30:56.003Z,29.66
2022-08-04T21:33:43.907Z,30.18
2022-08-04T21:36:13.334Z,30.17
2022-08-04T21:38:41.942Z,30.16
2022-08-04T21:41:24.771Z,30.12
2022-08-04T21:43:54.888Z,30.17
2022-08-04T21:46:23.389Z,30.17
2022-08-04T21:48:51.370Z,30.11
2022-08-04T21:51:56.999Z,30.12
2022-08-04T21:54:09.254Z,30.06
2022-08-04T21:56:38.805Z,30.02
2022-08-04T21:59:14.435Z,29.99
2022-08-04T22:01:52.469Z,29.82
2022-08-04T22:04:22.884Z,29.91
2022-08-04T22:06:52.551Z,29.86
2022-08-04T22:09:21.588Z,29.82
2022-08-04T22:11:51.954Z,29.71
2022-08-04T22:14:27.159Z,29.71
2022-08-04T22:16:57.643Z,29.65
2022-08-04T22:19:50.383Z,29.60
2022-08-04T22:22:25.425Z,29.57
2022-08-04T22:24:55.209Z,29.52
2022-08-04T22:27:42.162Z,29.49
2022-08-04T22:30:17.802Z,29.47
2022-08-04T22:32:47.076Z,29.42
2022-08-04T22:35:43.720Z,29.35
2022-08-04T22:38:07.806Z,29.28
2022-08-04T22:40:50.847Z,29.18
2022-08-04T22:43:32.826Z,29.19
2022-08-04T22:46:03.805Z,29.17
2022-08-04T22:48:32.606Z,29.21
2022-08-04T22:51:00.682Z,29.24
2022-08-04T22:53:28.683Z,29.29
2022-08-04T22:56:06.408Z,29.27
2022-08-04T22:58:40.260Z,29.25
2022-08-04T23:01:08.936Z,29.18
2022-08-04T23:03:38.454Z,29.14
2022-08-04T23:06:10.788Z,29.05
2022-08-04T23:08:43.326Z,28.41
2022-08-04T23:11:16.471Z,28.46
2022-08-04T23:13:45.670Z,28.16
2022-08-04T23:16:15.204Z,27.24
2022-08-04T23:18:45.260Z,28.39
2022-08-04T23:21:16.307Z,27.97
2022-08-04T23:23:45.636Z,27.24
2022-08-04T23:26:27.298Z,26.96
2022-08-04T23:28:57.496Z,27.90
2022-08-04T23:31:40.405Z,27.90
2022-08-04T23:34:08.712Z,27.89
2022-08-04T23:36:36.705Z,27.65
2022-08-04T23:39:06.399Z,27.56
2022-08-04T23:41:53.659Z,26.65
2022-08-04T23:44:25.861Z,26.74
2022-08-04T23:47:01.258Z,26.98
2022-08-04T23:49:43.492Z,27.20
2022-08-04T23:52:27.978Z,26.09
2022-08-04T23:54:58.802Z,26.15
2022-08-04T23:58:02.255Z,26.91
